Time;durP1;ratioP1;P1;durP2;ratioP2;P2;SDS_P1;SDS_P2;PMS_P1;PMS_P2;Temp;Humidity;BMP_temperature;BMP_pressure;BME280_temperature;BME280_humidity;BME280_pressure;Samples;Min_cycle;Max_cycle;Signal;HPM_P1;HPM_P2
2022/10/24 00:00:48;;;;;;;6.20;3.20;;;16.50;99.90;;;;;;2612921;54;20199;-78
2022/10/24 00:06:36;;;;;;;5.33;2.67;;;16.40;99.90;;;;;;2612493;54;20138;-77
2022/10/24 00:12:24;;;;;;;8.23;3.60;;;16.60;99.90;;;;;;2612698;39;20542;-78
2022/10/24 00:18:12;;;;;;;8.50;3.87;;;16.60;99.90;;;;;;2613313;54;20153;-79
2022/10/24 00:24:00;;;;;;;7.13;4.00;;;16.70;99.90;;;;;;2613421;54;20419;-79
2022/10/24 00:29:48;;;;;;;10.23;3.90;;;16.60;99.90;;;;;;2613028;54;20165;-80
2022/10/24 00:35:35;;;;;;;6.70;3.90;;;16.40;99.90;;;;;;2612677;54;20131;-80
2022/10/24 00:52:09;;;;;;;9.80;4.07;;;16.60;99.90;;;;;;2610153;54;20391;-79
2022/10/24 00:58:00;;;;;;;6.03;4.13;;;16.70;99.90;;;;;;2610872;54;20505;-77
2022/10/24 01:03:47;;;;;;;6.40;4.63;;;16.80;99.90;;;;;;2609947;54;20518;-76
2022/10/24 01:13:32;;;;;;;15.27;4.73;;;17.00;99.90;;;;;;2611219;54;20411;-76
2022/10/24 01:22:21;;;;;;;15.77;3.23;;;17.40;99.90;;;;;;2610510;54;20415;-75
2022/10/24 01:28:23;;;;;;;5.87;3.60;;;17.40;99.90;;;;;;2612993;54;20395;-80
2022/10/24 01:44:47;;;;;;;8.40;3.03;;;17.50;99.90;;;;;;2611585;46;20402;-80
2022/10/24 01:53:28;;;;;;;6.13;2.90;;;17.30;99.90;;;;;;2611142;39;20768;-81
2022/10/24 01:59:26;;;;;;;7.63;3.53;;;17.20;99.90;;;;;;2609071;54;20448;-82
2022/10/24 02:09:47;;;;;;;5.60;4.20;;;17.50;99.90;;;;;;2610035;54;20418;-80
2022/10/24 02:15:40;;;;;;;8.30;3.00;;;17.20;99.90;;;;;;2609997;39;20757;-80
2022/10/24 02:34:09;;;;;;;13.87;4.30;;;17.20;99.90;;;;;;2610564;54;20395;-77
2022/10/24 02:39:58;;;;;;;5.87;4.00;;;16.90;99.90;;;;;;2612411;54;20524;-78
2022/10/24 02:49:17;;;;;;;6.60;3.70;;;16.90;99.90;;;;;;2613744;54;20463;-76
2022/10/24 02:55:05;;;;;;;5.33;4.00;;;17.00;99.90;;;;;;2615738;54;20392;-78
2022/10/24 03:00:53;;;;;;;7.43;3.20;;;17.00;99.90;;;;;;2612833;54;20416;-79
2022/10/24 03:06:41;;;;;;;7.73;4.00;;;17.00;99.90;;;;;;2613092;54;20194;-78
2022/10/24 03:12:29;;;;;;;8.00;3.77;;;16.90;99.90;;;;;;2613904;39;20712;-78
2022/10/24 03:18:17;;;;;;;10.53;3.47;;;16.90;99.90;;;;;;2612604;54;20134;-77
2022/10/24 03:24:05;;;;;;;7.60;3.33;;;17.00;99.90;;;;;;2613217;54;20134;-77
2022/10/24 03:29:52;;;;;;;4.90;3.20;;;17.00;99.90;;;;;;2612290;54;20355;-79
2022/10/24 03:35:40;;;;;;;6.20;3.67;;;17.00;99.90;;;;;;2612273;54;20217;-79
2022/10/24 03:41:27;;;;;;;7.37;4.60;;;17.00;99.90;;;;;;2612771;54;20131;-78
2022/10/24 03:47:27;;;;;;;7.90;4.40;;;16.90;99.90;;;;;;2611452;39;20269;-79
2022/10/24 03:53:14;;;;;;;7.40;3.83;;;16.80;99.90;;;;;;2610973;54;20379;-77
2022/10/24 03:59:01;;;;;;;8.10;3.60;;;16.80;99.90;;;;;;2610576;54;20532;-77
2022/10/24 04:04:52;;;;;;;10.93;3.27;;;17.00;99.90;;;;;;2611062;54;20134;-77
2022/10/24 04:10:39;;;;;;;9.03;3.60;;;17.00;99.90;;;;;;2610449;54;20399;-76
2022/10/24 04:16:27;;;;;;;6.70;3.37;;;17.20;99.90;;;;;;2611120;54;20182;-77
2022/10/24 04:22:14;;;;;;;8.03;3.67;;;17.10;99.90;;;;;;2611073;54;20150;-78
2022/10/24 04:28:02;;;;;;;5.13;3.40;;;17.10;99.90;;;;;;2612222;54;20154;-78
2022/10/24 04:33:51;;;;;;;8.10;3.30;;;16.90;99.90;;;;;;2612241;54;20422;-77
2022/10/24 04:39:39;;;;;;;8.63;2.70;;;17.00;99.90;;;;;;2613785;54;20419;-77
2022/10/24 04:49:17;;;;;;;6.80;3.60;;;16.80;99.90;;;;;;2616454;54;20435;-77
2022/10/24 04:55:05;;;;;;;5.20;3.00;;;16.60;99.90;;;;;;2614505;54;20985;-79
2022/10/24 05:00:52;;;;;;;5.90;3.50;;;16.70;99.90;;;;;;2614481;54;20443;-78
2022/10/24 05:06:41;;;;;;;9.93;3.50;;;16.80;99.90;;;;;;2613607;54;20129;-77
2022/10/24 05:12:28;;;;;;;3.67;3.30;;;16.70;99.90;;;;;;2614571;54;20435;-77
2022/10/24 05:18:17;;;;;;;6.00;2.97;;;16.80;99.90;;;;;;2615501;54;20123;-77
2022/10/24 05:24:05;;;;;;;6.13;3.50;;;16.70;99.90;;;;;;2616175;54;20370;-79
2022/10/24 05:29:53;;;;;;;4.47;2.97;;;16.70;99.90;;;;;;2615779;54;20834;-80
2022/10/24 05:35:48;;;;;;;5.40;2.90;;;16.70;99.90;;;;;;2614755;54;20522;-75
2022/10/24 05:41:36;;;;;;;11.10;3.90;;;16.60;99.90;;;;;;2612893;54;20371;-75
2022/10/24 05:44:41;;;;;;;4.73;3.27;;;16.60;99.90;;;;;;2613791;54;20423;-75
2022/10/24 05:47:07;;;;;;;3.03;2.70;;;16.60;99.90;;;;;;2614208;47;20171;-75
2022/10/24 05:52:54;;;;;;;2.80;2.60;;;16.60;99.90;;;;;;2614197;54;20202;-76
2022/10/24 05:58:42;;;;;;;6.73;3.70;;;16.60;99.90;;;;;;2614258;54;20138;-76
2022/10/24 06:04:30;;;;;;;9.67;3.83;;;16.60;99.90;;;;;;2614990;54;20169;-79
2022/10/24 06:10:18;;;;;;;4.03;2.63;;;16.50;99.90;;;;;;2615400;54;20123;-80
2022/10/24 06:16:07;;;;;;;7.37;3.80;;;16.50;99.90;;;;;;2614554;54;20115;-79
2022/10/24 06:21:55;;;;;;;7.37;3.60;;;16.50;99.90;;;;;;2613859;54;20391;-80
2022/10/24 06:27:43;;;;;;;8.40;3.13;;;16.70;99.90;;;;;;2615569;54;20157;-80
2022/10/24 06:33:30;;;;;;;5.80;3.70;;;16.80;99.90;;;;;;2613689;46;20887;-75
2022/10/24 06:39:18;;;;;;;4.13;2.93;;;16.80;99.90;;;;;;2612361;46;20457;-78
2022/10/24 06:49:16;;;;;;;6.93;3.40;;;16.80;99.90;;;;;;2613379;54;20470;-82
2022/10/24 06:55:05;;;;;;;7.63;3.27;;;16.70;99.90;;;;;;2616673;54;20519;-81
2022/10/24 06:58:08;;;;;;;3.50;2.50;;;16.80;99.90;;;;;;2613429;47;20442;-81
2022/10/24 07:00:36;;;;;;;4.43;3.20;;;16.80;99.90;;;;;;2613996;54;20498;-80
2022/10/24 07:06:27;;;;;;;4.73;3.13;;;17.10;99.90;;;;;;2612988;54;20394;-79
2022/10/24 07:12:14;;;;;;;6.47;3.47;;;17.10;99.90;;;;;;2613627;54;20483;-79
2022/10/24 07:18:02;;;;;;;5.20;3.33;;;17.70;99.90;;;;;;2614412;39;20563;-80
2022/10/24 07:23:52;;;;;;;5.93;3.70;;;17.70;99.90;;;;;;2614625;54;20118;-79
2022/10/24 07:29:39;;;;;;;4.53;3.20;;;18.30;97.30;;;;;;2613002;54;20406;-79
2022/10/24 07:35:27;;;;;;;6.30;3.70;;;18.90;90.80;;;;;;2610963;54;20161;-79
2022/10/24 07:41:15;;;;;;;3.57;3.20;;;18.40;95.00;;;;;;2614389;39;20543;-79
2022/10/24 07:47:05;;;;;;;3.93;3.57;;;18.60;93.20;;;;;;2614361;54;20563;-80
2022/10/24 07:52:53;;;;;;;4.20;3.30;;;18.10;97.10;;;;;;2618213;39;20961;-76
2022/10/24 07:58:42;;;;;;;6.27;3.47;;;17.90;99.10;;;;;;2613860;54;20150;-79
2022/10/24 08:04:30;;;;;;;8.30;4.27;;;17.70;99.90;;;;;;2614491;39;21567;-77
2022/10/24 08:10:18;;;;;;;6.73;4.40;;;18.20;96.20;;;;;;2614015;54;20154;-77
2022/10/24 08:16:07;;;;;;;4.50;3.70;;;18.20;99.00;;;;;;2614922;54;20236;-77
2022/10/24 08:21:55;;;;;;;6.43;4.73;;;18.00;99.90;;;;;;2611479;54;20441;-79
2022/10/24 08:27:43;;;;;;;6.00;3.77;;;18.00;99.90;;;;;;2613029;39;20509;-77
2022/10/24 08:33:31;;;;;;;3.77;3.43;;;17.90;99.90;;;;;;2613024;54;20162;-77
2022/10/24 08:39:19;;;;;;;10.63;3.73;;;17.90;99.90;;;;;;2613005;54;20419;-78
2022/10/24 08:49:16;;;;;;;5.13;3.97;;;18.30;99.90;;;;;;2614435;54;20407;-75
2022/10/24 08:55:21;;;;;;;4.20;3.57;;;17.90;99.90;;;;;;2614012;54;20923;-78
2022/10/24 09:07:27;;;;;;;6.97;3.63;;;17.70;99.90;;;;;;2613320;54;20407;-78
2022/10/24 09:13:16;;;;;;;5.00;3.80;;;17.70;99.90;;;;;;2615202;39;20860;-75
2022/10/24 09:19:04;;;;;;;5.00;3.73;;;17.70;99.90;;;;;;2613324;54;20442;-79
2022/10/24 09:24:54;;;;;;;5.70;3.77;;;17.60;99.90;;;;;;2615604;54;20398;-78
2022/10/24 09:30:42;;;;;;;5.50;4.00;;;17.60;99.90;;;;;;2611969;54;20403;-79
2022/10/24 09:36:30;;;;;;;5.20;3.63;;;18.10;97.10;;;;;;2611688;54;20454;-78
2022/10/24 09:42:22;;;;;;;12.90;4.77;;;17.90;99.90;;;;;;2611185;39;20544;-77
2022/10/24 09:44:48;;;;;;;3.50;3.20;;;17.60;99.90;;;;;;2611443;54;20396;-79
2022/10/24 09:47:26;;;;;;;9.87;4.00;;;17.70;99.90;;;;;;2614191;46;20454;-79
2022/10/24 10:06:22;;;;;;;6.57;4.40;;;18.40;95.20;;;;;;2613329;54;20383;-80
2022/10/24 10:12:33;;;;;;;5.83;4.90;;;18.40;90.40;;;;;;2612339;54;20151;-79
2022/10/24 10:18:25;;;;;;;5.67;4.50;;;18.10;92.30;;;;;;2612175;54;20972;-80
2022/10/24 10:30:50;;;;;;;5.47;3.60;;;18.50;94.40;;;;;;2611786;54;20536;-80
2022/10/24 10:52:48;;;;;;;11.03;5.03;;;18.40;91.70;;;;;;2614475;54;20382;-76
2022/10/24 11:11:37;;;;;;;5.20;4.13;;;18.90;92.50;;;;;;2616011;54;20433;-79
2022/10/24 11:17:28;;;;;;;8.13;4.37;;;18.50;95.90;;;;;;2614675;54;20392;-77
2022/10/24 11:36:48;;;;;;;6.73;4.07;;;18.90;95.00;;;;;;2612838;54;20507;-77
2022/10/24 11:42:46;;;;;;;6.00;4.47;;;18.80;96.30;;;;;;2613659;54;20515;-81
2022/10/24 12:18:21;;;;;;;9.07;4.97;;;18.30;97.50;;;;;;2615758;54;20395;-75
2022/10/24 12:37:32;;;;;;;6.63;4.60;;;18.10;99.90;;;;;;2612424;54;20431;-77
2022/10/24 12:46:55;;;;;;;6.53;4.20;;;18.00;99.90;;;;;;2613233;46;20391;-77
2022/10/24 12:52:46;;;;;;;7.83;4.90;;;18.10;99.90;;;;;;2613663;54;20507;-80
2022/10/24 12:58:37;;;;;;;5.93;4.13;;;17.50;99.90;;;;;;2614562;54;20386;-77
2022/10/24 13:23:36;;;;;;;6.17;3.70;;;17.40;99.90;;;;;;2612360;54;20544;-77
2022/10/24 13:29:26;;;;;;;8.37;3.47;;;17.60;99.90;;;;;;2613026;54;20169;-77
2022/10/24 13:41:32;;;;;;;4.60;3.90;;;20.20;90.20;;;;;;2612849;54;20375;-76
2022/10/24 13:47:27;;;;;;;10.57;5.50;;;19.10;96.00;;;;;;2612379;54;21043;-76
2022/10/24 13:53:19;;;;;;;5.83;4.40;;;18.90;96.70;;;;;;2613766;39;20844;-77
2022/10/24 13:59:30;;;;;;;9.90;4.77;;;18.70;98.00;;;;;;2613757;54;20363;-77
2022/10/24 14:11:41;;;;;;;4.60;4.23;;;19.60;77.00;;;;;;2613767;54;21065;-78
2022/10/24 14:17:35;;;;;;;8.50;4.83;;;18.90;91.90;;;;;;2615143;54;20395;-77
2022/10/24 14:30:02;;;;;;;15.13;5.17;;;18.50;92.70;;;;;;2613081;54;20379;-80
2022/10/24 14:35:51;;;;;;;5.07;4.10;;;18.40;93.60;;;;;;2615220;39;20828;-80
2022/10/24 14:41:40;;;;;;;6.40;4.47;;;18.20;95.80;;;;;;2614074;54;20384;-78
2022/10/24 14:47:30;;;;;;;5.80;4.40;;;18.20;98.20;;;;;;2615443;54;20387;-78
2022/10/24 14:53:25;;;;;;;5.23;4.03;;;18.10;97.70;;;;;;2614362;54;20430;-79
2022/10/24 14:56:34;;;;;;;11.47;5.70;;;18.20;99.00;;;;;;2614851;31;20849;-79
2022/10/24 15:02:30;;;;;;;6.63;6.00;;;17.70;99.90;;;;;;2613746;54;20440;-79
2022/10/24 15:08:25;;;;;;;11.53;5.40;;;17.50;99.90;;;;;;2613799;54;20504;-77
2022/10/24 15:14:32;;;;;;;7.43;3.33;;;17.00;99.90;;;;;;2615606;54;20371;-81
2022/10/24 15:20:28;;;;;;;8.40;2.77;;;15.60;99.90;;;;;;2622017;46;20405;-86
2022/10/24 15:32:49;;;;;;;7.23;2.83;;;15.40;99.90;;;;;;2615667;54;20387;-79
2022/10/24 15:38:37;;;;;;;14.43;3.10;;;15.30;99.90;;;;;;2616620;31;20862;-79
2022/10/24 15:44:28;;;;;;;18.73;3.50;;;14.90;99.90;;;;;;2616901;54;20677;-81
2022/10/24 15:50:19;;;;;;;6.87;2.80;;;15.00;99.90;;;;;;2616714;54;20504;-80
2022/10/24 15:56:06;;;;;;;13.83;3.20;;;15.00;99.90;;;;;;2615553;54;20489;-80
2022/10/24 16:01:56;;;;;;;7.43;3.17;;;14.90;99.90;;;;;;2615226;39;20857;-82
2022/10/24 16:07:43;;;;;;;9.60;2.70;;;14.80;99.90;;;;;;2614579;46;20414;-82
2022/10/24 16:13:34;;;;;;;12.87;3.53;;;14.80;99.90;;;;;;2613199;54;20134;-79
2022/10/24 16:19:27;;;;;;;15.30;3.60;;;14.80;99.90;;;;;;2614711;54;20383;-79
2022/10/24 16:25:18;;;;;;;11.67;2.73;;;14.80;99.90;;;;;;2615303;54;20395;-81
2022/10/24 16:31:06;;;;;;;6.50;2.67;;;14.70;99.90;;;;;;2615539;54;20388;-81
2022/10/24 16:36:54;;;;;;;5.23;2.40;;;14.60;99.90;;;;;;2614924;47;20403;-81
2022/10/24 16:42:43;;;;;;;5.17;2.50;;;14.60;99.90;;;;;;2615324;54;20383;-81
2022/10/24 16:48:31;;;;;;;10.30;3.50;;;14.30;99.90;;;;;;2615797;54;21030;-81
2022/10/24 16:54:19;;;;;;;9.93;3.40;;;14.40;99.90;;;;;;2615094;54;20749;-80
2022/10/24 17:00:13;;;;;;;8.30;2.77;;;14.50;99.90;;;;;;2615434;54;20391;-80
2022/10/24 17:06:01;;;;;;;6.77;2.97;;;14.50;99.90;;;;;;2616532;39;20790;-81
2022/10/24 17:11:49;;;;;;;8.03;3.57;;;14.40;99.90;;;;;;2615351;54;20414;-80
2022/10/24 17:17:38;;;;;;;8.20;3.67;;;14.50;99.90;;;;;;2613477;54;20157;-80
2022/10/24 17:23:27;;;;;;;13.13;3.10;;;14.50;99.90;;;;;;2616322;54;20407;-81
2022/10/24 17:42:32;;;;;;;7.93;3.13;;;14.60;99.90;;;;;;2615770;39;20872;-82
2022/10/24 17:48:20;;;;;;;8.73;3.70;;;14.50;99.90;;;;;;2616126;54;20444;-82
2022/10/24 17:54:09;;;;;;;10.20;3.10;;;14.50;99.90;;;;;;2615126;54;20475;-82
2022/10/24 17:59:57;;;;;;;8.23;2.77;;;14.30;99.90;;;;;;2613717;54;20388;-83
2022/10/24 18:05:44;;;;;;;8.83;2.40;;;14.10;99.90;;;;;;2614091;54;20134;-82
2022/10/24 18:11:31;;;;;;;6.70;1.70;;;14.00;99.90;;;;;;2614418;54;20147;-82
2022/10/24 18:17:18;;;;;;;6.70;2.07;;;13.80;99.90;;;;;;2618252;39;20337;-81
2022/10/24 18:23:06;;;;;;;4.97;2.30;;;13.70;99.90;;;;;;2615136;54;20294;-82
2022/10/24 18:28:55;;;;;;;7.57;2.70;;;13.70;99.90;;;;;;2615952;54;20158;-82
2022/10/24 18:34:43;;;;;;;4.10;1.83;;;13.70;99.90;;;;;;2614606;54;21039;-79
2022/10/24 18:40:32;;;;;;;15.13;4.50;;;13.60;99.90;;;;;;2617135;54;20166;-78
2022/10/24 18:46:20;;;;;;;4.87;2.40;;;13.40;99.90;;;;;;2615141;39;21229;-78
2022/10/24 18:49:23;;;;;;;7.40;4.83;;;13.30;99.90;;;;;;2614922;54;20410;-78
2022/10/24 18:58:31;;;;;;;7.17;2.50;;;13.30;99.90;;;;;;2614918;54;20431;-81
2022/10/24 19:04:24;;;;;;;9.27;3.43;;;13.30;99.90;;;;;;2616224;54;20198;-80
2022/10/24 19:10:24;;;;;;;10.43;3.27;;;13.30;99.90;;;;;;2617315;54;20410;-81
2022/10/24 19:16:19;;;;;;;6.23;3.20;;;13.20;99.90;;;;;;2616325;54;20514;-78
2022/10/24 19:22:28;;;;;;;5.73;2.83;;;13.30;99.90;;;;;;2614198;54;20415;-78
2022/10/24 19:28:18;;;;;;;4.00;2.10;;;13.10;99.90;;;;;;2613823;54;20387;-78
2022/10/24 19:37:27;;;;;;;3.80;2.23;;;13.10;99.90;;;;;;2612395;54;20492;-77
2022/10/24 19:43:14;;;;;;;6.80;2.50;;;13.30;99.90;;;;;;2612726;54;20502;-77
2022/10/24 19:49:02;;;;;;;8.17;2.73;;;13.30;99.90;;;;;;2615314;54;20146;-81
2022/10/24 19:52:05;;;;;;;5.50;3.17;;;13.40;99.90;;;;;;2616790;39;20995;-82
2022/10/24 19:54:31;;;;;;;3.50;2.00;;;13.40;99.90;;;;;;2616851;54;20457;-82
2022/10/24 20:00:20;;;;;;;6.27;3.20;;;13.40;99.90;;;;;;2617003;54;20142;-82
2022/10/24 20:06:09;;;;;;;5.63;3.60;;;13.40;99.90;;;;;;2619530;39;20781;-83
2022/10/24 20:11:56;;;;;;;7.40;3.53;;;13.60;99.90;;;;;;2618284;54;20511;-83
2022/10/24 20:17:45;;;;;;;9.10;4.10;;;13.70;99.90;;;;;;2616409;54;20131;-81
2022/10/24 20:23:33;;;;;;;6.63;3.03;;;13.90;99.90;;;;;;2617356;54;20407;-82
2022/10/24 20:29:21;;;;;;;5.17;2.43;;;14.00;99.90;;;;;;2618926;54;20415;-82
2022/10/24 20:35:08;;;;;;;5.23;2.50;;;14.20;99.90;;;;;;2618146;54;20137;-83
2022/10/24 20:41:01;;;;;;;4.07;1.80;;;14.00;99.90;;;;;;2616463;54;20126;-82
2022/10/24 20:46:49;;;;;;;8.90;3.23;;;13.90;99.90;;;;;;2616674;54;20944;-82
2022/10/24 20:56:39;;;;;;;5.93;2.47;;;13.80;99.90;;;;;;2615547;54;20966;-82
2022/10/24 21:02:26;;;;;;;4.30;2.20;;;13.70;99.90;;;;;;2617503;54;20422;-83
2022/10/24 21:08:14;;;;;;;6.20;1.97;;;13.60;99.90;;;;;;2617567;54;20127;-82
2022/10/24 21:14:04;;;;;;;4.60;1.93;;;13.60;99.90;;;;;;2614157;39;20719;-82
2022/10/24 21:19:52;;;;;;;8.53;2.20;;;13.60;99.90;;;;;;2615334;54;20347;-82
2022/10/24 21:25:40;;;;;;;5.33;2.10;;;13.50;99.90;;;;;;2617351;54;20261;-82
2022/10/24 21:31:28;;;;;;;2.17;1.30;;;13.50;99.90;;;;;;2618859;54;20161;-81
2022/10/24 21:37:16;;;;;;;3.87;1.73;;;13.50;99.90;;;;;;2615522;54;20127;-82
2022/10/24 21:43:04;;;;;;;3.73;1.53;;;13.50;99.90;;;;;;2618948;39;20693;-80
2022/10/24 21:48:53;;;;;;;2.13;1.30;;;13.30;99.90;;;;;;2612618;54;20149;-81
2022/10/24 21:55:19;;;;;;;7.13;2.40;;;13.30;99.90;;;;;;2614447;54;20434;-81
2022/10/24 21:58:06;;;;;;;2.43;1.40;;;13.20;99.90;;;;;;2619099;54;20435;-81
2022/10/24 22:03:55;;;;;;;7.10;1.87;;;13.20;99.90;;;;;;2622543;54;20391;-81
2022/10/24 22:09:43;;;;;;;3.47;1.77;;;13.30;99.90;;;;;;2622530;39;21043;-81
2022/10/24 22:15:31;;;;;;;3.40;2.27;;;13.40;99.90;;;;;;2621447;54;20138;-81
2022/10/24 22:21:25;;;;;;;8.40;2.60;;;13.40;99.90;;;;;;2620444;54;20150;-82
2022/10/24 22:27:13;;;;;;;2.80;2.03;;;13.50;99.90;;;;;;2620875;54;20375;-82
2022/10/24 22:33:02;;;;;;;4.30;2.20;;;13.60;99.90;;;;;;2620339;54;20157;-81
2022/10/24 22:38:54;;;;;;;8.53;2.47;;;13.70;99.90;;;;;;2620198;54;20387;-81
2022/10/24 22:44:43;;;;;;;5.57;2.10;;;13.80;99.90;;;;;;2621315;54;20403;-80
2022/10/24 23:00:28;;;;;;;8.20;2.60;;;13.90;99.90;;;;;;2622251;54;20426;-79
2022/10/24 23:12:31;;;;;;;4.47;2.30;;;14.10;99.90;;;;;;2622297;54;20387;-80
2022/10/24 23:18:19;;;;;;;4.80;2.60;;;14.10;99.90;;;;;;2622190;54;20395;-82
2022/10/24 23:30:52;;;;;;;12.43;4.20;;;14.20;99.90;;;;;;2611591;54;20388;-82
2022/10/24 23:36:43;;;;;;;6.60;2.97;;;14.30;99.90;;;;;;2615124;54;21703;-79
2022/10/24 23:42:30;;;;;;;6.77;2.50;;;14.30;99.90;;;;;;2614001;54;20419;-79
2022/10/24 23:54:47;;;;;;;9.63;2.50;;;14.40;99.90;;;;;;2611131;54;20924;-77
